createdAt,value
2023-04-18T00:01:40.255Z,158476.66
2023-04-18T00:04:09.107Z,158496.66
2023-04-18T00:06:37.329Z,158491.31
2023-04-18T00:09:05.445Z,158467.38
2023-04-18T00:11:34.633Z,158483.31
2023-04-18T00:14:03.464Z,158487.34
2023-04-18T00:16:33.279Z,158502.00
2023-04-18T00:19:02.452Z,158475.34
2023-04-18T00:21:32.844Z,158467.38
2023-04-18T00:24:01.849Z,158470.00
2023-04-18T00:26:29.421Z,158474.03
2023-04-18T00:28:58.285Z,158464.66
2023-04-18T00:31:25.847Z,158467.38
2023-04-18T00:33:53.892Z,158456.69
2023-04-18T00:36:24.403Z,158471.31
2023-04-18T00:38:52.888Z,158464.66
2023-04-18T00:41:22.388Z,158459.38
2023-04-18T00:43:50.627Z,158455.38
2023-04-18T00:46:18.344Z,158456.69
2023-04-18T00:48:48.689Z,158464.66
2023-04-18T00:51:16.224Z,158462.03
2023-04-18T00:53:44.655Z,158454.03
2023-04-18T00:56:12.403Z,158476.66
2023-04-18T00:58:41.098Z,158470.00
2023-04-18T01:01:09.512Z,158462.03
2023-04-18T01:03:37.575Z,158476.66
2023-04-18T01:06:05.382Z,158472.66
2023-04-18T01:08:34.606Z,158456.69
2023-04-18T01:11:02.360Z,158478.00
2023-04-18T01:13:30.202Z,158475.34
2023-04-18T01:15:58.059Z,158472.66
2023-04-18T01:18:27.194Z,158491.31
2023-04-18T01:21:00.531Z,158508.66
2023-04-18T01:23:28.919Z,158493.94
2023-04-18T01:25:57.443Z,158483.31
2023-04-18T01:28:27.985Z,158475.34
2023-04-18T01:30:57.073Z,158478.00
2023-04-18T01:33:25.069Z,158485.97
2023-04-18T01:35:52.840Z,158487.34
2023-04-18T01:38:20.284Z,158490.00
2023-04-18T01:40:47.704Z,158490.00
2023-04-18T01:43:15.776Z,158468.69
2023-04-18T01:45:43.282Z,158467.38
2023-04-18T01:48:11.136Z,158475.34
2023-04-18T01:50:41.923Z,158474.03
2023-04-18T01:53:11.322Z,158468.69
2023-04-18T01:55:38.680Z,158475.34
2023-04-18T01:58:07.040Z,158470.00
2023-04-18T02:00:35.365Z,158466.00
2023-04-18T02:03:03.160Z,158443.38
2023-04-18T02:05:31.112Z,158456.69
2023-04-18T02:08:00.735Z,158458.00
2023-04-18T02:10:28.213Z,158478.00
2023-04-18T02:12:56.446Z,158456.69
2023-04-18T02:15:24.412Z,158459.38
2023-04-18T02:17:53.876Z,158467.38
2023-04-18T02:20:26.353Z,158462.03
2023-04-18T02:22:54.753Z,158472.66
2023-04-18T02:25:23.730Z,158460.69
2023-04-18T02:27:51.530Z,158460.69
2023-04-18T02:30:19.029Z,158467.38
2023-04-18T02:32:46.993Z,158456.69
2023-04-18T02:35:15.027Z,158458.00
2023-04-18T02:37:42.697Z,158454.03
2023-04-18T02:40:13.489Z,158459.38
2023-04-18T02:42:41.214Z,158456.69
2023-04-18T02:45:08.941Z,158488.66
2023-04-18T02:47:43.815Z,158456.69
2023-04-18T02:50:21.458Z,158463.34
2023-04-18T02:52:49.231Z,158464.66
2023-04-18T02:55:19.141Z,158468.69
2023-04-18T02:57:47.174Z,158456.69
2023-04-18T03:00:40.686Z,158454.03
2023-04-18T03:03:40.511Z,158459.38
2023-04-18T03:06:31.942Z,158448.72
2023-04-18T03:09:03.554Z,158459.38
2023-04-18T03:11:33.286Z,158480.69
2023-04-18T03:14:00.989Z,158474.03
2023-04-18T03:16:36.729Z,158479.31
2023-04-18T03:19:06.824Z,158460.69
2023-04-18T03:21:34.411Z,158467.38
2023-04-18T03:24:02.522Z,158476.66
2023-04-18T03:26:29.968Z,158479.31
2023-04-18T03:28:58.070Z,158474.03
2023-04-18T03:31:25.581Z,158482.00
2023-04-18T03:33:53.234Z,158471.31
2023-04-18T03:36:25.411Z,158470.00
2023-04-18T03:38:54.786Z,158467.38
2023-04-18T03:41:22.128Z,158479.31
2023-04-18T03:43:49.738Z,158459.38
2023-04-18T03:46:17.900Z,158454.03
2023-04-18T03:48:47.093Z,158476.66
2023-04-18T03:51:15.017Z,158485.97
2023-04-18T03:53:42.640Z,158474.03
2023-04-18T03:56:10.070Z,158475.34
2023-04-18T03:58:49.831Z,158479.31
2023-04-18T04:01:18.303Z,158492.63
2023-04-18T04:03:46.671Z,158464.66
2023-04-18T04:06:14.504Z,158480.69
2023-04-18T04:08:41.885Z,158485.97
2023-04-18T04:11:09.729Z,158475.34
2023-04-18T04:13:37.478Z,158496.66
2023-04-18T04:16:05.408Z,158472.66
2023-04-18T04:18:33.289Z,158474.03
2023-04-18T04:21:03.569Z,158471.31
2023-04-18T04:23:43.950Z,158478.00
2023-04-18T04:26:17.041Z,158470.00
2023-04-18T04:28:54.838Z,158476.66
2023-04-18T04:31:25.520Z,158474.03
2023-04-18T04:33:53.271Z,158488.66
2023-04-18T04:36:23.275Z,158495.31
2023-04-18T04:38:53.167Z,158502.00
2023-04-18T04:41:28.302Z,158508.66
2023-04-18T04:43:57.141Z,158502.00
2023-04-18T04:46:30.528Z,158485.97
2023-04-18T04:49:00.989Z,158516.63
2023-04-18T04:51:28.510Z,158535.25
2023-04-18T04:53:56.995Z,158532.59
2023-04-18T04:56:25.204Z,158540.59
2023-04-18T04:58:54.251Z,158560.56
2023-04-18T05:01:25.198Z,158557.91
2023-04-18T05:03:53.008Z,158576.53
2023-04-18T05:06:23.496Z,158576.53
2023-04-18T05:08:51.369Z,158564.59
2023-04-18T05:11:19.414Z,158572.56
2023-04-18T05:13:47.266Z,158588.53
2023-04-18T05:16:14.807Z,158575.22
2023-04-18T05:18:43.068Z,158595.19
2023-04-18T05:21:10.612Z,158588.53
2023-04-18T05:23:38.461Z,158587.22
2023-04-18T05:26:06.413Z,158609.84
2023-04-18T05:28:34.545Z,158611.16
2023-04-18T05:31:02.585Z,158615.19
2023-04-18T05:33:31.746Z,158640.47
2023-04-18T05:35:59.743Z,158656.50
2023-04-18T05:38:27.509Z,158675.09
2023-04-18T05:40:56.013Z,158696.41
2023-04-18T05:43:23.737Z,158709.75
2023-04-18T05:45:52.808Z,158717.72
2023-04-18T05:48:21.666Z,158732.38
2023-04-18T05:50:49.957Z,158753.69
2023-04-18T05:53:18.167Z,158793.75
2023-04-18T05:55:46.786Z,158811.09
2023-04-18T05:58:15.088Z,158828.41
2023-04-18T06:00:43.177Z,158833.75
2023-04-18T06:03:11.559Z,158833.75
2023-04-18T06:05:41.236Z,158869.72
2023-04-18T06:08:09.224Z,158901.69
2023-04-18T06:10:38.996Z,158907.03
2023-04-18T06:13:07.087Z,158895.03
2023-04-18T06:15:35.233Z,158923.00
2023-04-18T06:18:03.162Z,158933.72
2023-04-18T06:20:30.602Z,158949.69
2023-04-18T06:22:58.432Z,158956.34
2023-04-18T06:25:26.168Z,158987.06
2023-04-18T06:27:53.836Z,158996.38
2023-04-18T06:30:22.504Z,158995.06
2023-04-18T06:32:50.772Z,159021.69
2023-04-18T06:35:18.325Z,159032.38
2023-04-18T06:37:46.288Z,159021.69
2023-04-18T06:40:14.118Z,159051.06
2023-04-18T06:42:42.803Z,159040.38
2023-04-18T06:45:13.172Z,159073.72
2023-04-18T06:47:41.428Z,159061.69
2023-04-18T06:50:09.331Z,159097.69
2023-04-18T06:52:40.885Z,159080.38
2023-04-18T06:55:09.633Z,159080.38
2023-04-18T06:57:38.713Z,159067.03
2023-04-18T07:00:07.441Z,159047.03
2023-04-18T07:02:37.793Z,159085.75
2023-04-18T07:05:06.600Z,159085.75
2023-04-18T07:07:35.156Z,159077.69
2023-04-18T07:10:02.847Z,159104.38
2023-04-18T07:12:30.748Z,159105.69
2023-04-18T07:14:58.143Z,159131.06
2023-04-18T07:17:25.961Z,159147.06
2023-04-18T07:19:53.533Z,159149.75
2023-04-18T07:22:21.281Z,159143.09
2023-04-18T07:24:48.629Z,159151.06
2023-04-18T07:27:16.865Z,159221.78
2023-04-18T07:29:44.648Z,159195.09
2023-04-18T07:32:12.330Z,159215.09
2023-04-18T07:34:40.661Z,159240.47
2023-04-18T07:37:08.383Z,159253.78
2023-04-18T07:39:36.418Z,159307.22
2023-04-18T07:42:04.933Z,159381.97
2023-04-18T07:44:32.176Z,159411.34
2023-04-18T07:46:59.865Z,159499.41
2023-04-18T07:49:27.281Z,159527.47
2023-04-18T07:51:56.478Z,159583.56
2023-04-18T07:54:23.839Z,159649.03
2023-04-18T07:56:51.547Z,159638.31
2023-04-18T07:59:19.310Z,159599.63
2023-04-18T08:01:46.906Z,159615.63
2023-04-18T08:04:15.311Z,159662.34
2023-04-18T08:06:43.078Z,159699.81
2023-04-18T08:09:10.678Z,159675.69
2023-04-18T08:11:39.395Z,159689.13
2023-04-18T08:14:06.723Z,159730.53
2023-04-18T08:16:34.562Z,159830.72
2023-04-18T08:19:02.301Z,159892.22
2023-04-18T08:21:30.115Z,159904.25
2023-04-18T08:23:57.859Z,159902.94
2023-04-18T08:26:25.504Z,159960.41
2023-04-18T08:28:52.762Z,159971.06
2023-04-18T08:31:21.515Z,160035.25
2023-04-18T08:33:49.198Z,160108.84
2023-04-18T08:36:16.907Z,160090.13
2023-04-18T08:38:44.166Z,160044.63
2023-04-18T08:41:11.757Z,160075.41
2023-04-18T08:43:39.202Z,160082.09
2023-04-18T08:46:08.116Z,160151.66
2023-04-18T08:48:36.850Z,160202.47
2023-04-18T08:51:05.229Z,160189.06
2023-04-18T08:53:33.955Z,160218.50
2023-04-18T08:56:01.755Z,160237.25
2023-04-18T08:58:32.634Z,160238.56
2023-04-18T09:01:01.001Z,160148.94
2023-04-18T09:03:42.546Z,160194.44
2023-04-18T09:06:16.272Z,160191.72
2023-04-18T09:08:44.622Z,160207.81
2023-04-18T09:11:29.495Z,160203.78
2023-04-18T09:13:59.207Z,160190.41
2023-04-18T09:16:27.974Z,160199.81
2023-04-18T09:19:18.303Z,160219.81
2023-04-18T09:21:47.256Z,160190.41
2023-04-18T09:24:24.416Z,160199.81
2023-04-18T09:26:54.634Z,160186.41
2023-04-18T09:29:23.391Z,160207.81
2023-04-18T09:32:01.577Z,160266.66
2023-04-18T09:34:29.354Z,160297.41
2023-04-18T09:37:11.361Z,160400.50
2023-04-18T09:39:40.449Z,160392.50
2023-04-18T09:42:08.729Z,160408.53
2023-04-18T09:44:36.654Z,160364.34
2023-04-18T09:47:06.776Z,160302.78
2023-04-18T09:49:34.263Z,160290.72
2023-04-18T09:52:04.874Z,160288.06
2023-04-18T09:54:33.477Z,160293.44
2023-04-18T09:57:03.079Z,160233.22
2023-04-18T09:59:41.462Z,160217.16
2023-04-18T10:02:16.716Z,160199.81
2023-04-18T10:04:47.226Z,160197.09
2023-04-18T10:07:17.488Z,160235.91
2023-04-18T10:09:48.131Z,160230.53
2023-04-18T10:12:17.605Z,160242.59
2023-04-18T10:14:44.995Z,160238.56
2023-04-18T10:17:14.780Z,160272.03
2023-04-18T10:19:44.428Z,160251.94
2023-04-18T10:22:12.571Z,160227.88
2023-04-18T10:24:56.370Z,160219.81
2023-04-18T10:27:48.903Z,160221.19
2023-04-18T10:30:17.167Z,160264.00
2023-04-18T10:32:48.403Z,160281.38
2023-04-18T10:35:15.991Z,160308.13
2023-04-18T10:37:50.898Z,160367.00
2023-04-18T10:40:33.165Z,160408.53
2023-04-18T10:43:01.282Z,160395.16
2023-04-18T10:45:31.202Z,160352.28
2023-04-18T10:48:30.421Z,160358.97
2023-04-18T10:51:16.835Z,160395.16
2023-04-18T10:53:52.332Z,160411.25
2023-04-18T10:56:20.174Z,160389.78
2023-04-18T10:58:52.761Z,160437.97
2023-04-18T11:01:33.285Z,160522.28
2023-04-18T11:04:01.762Z,160529.00
2023-04-18T11:06:30.570Z,160575.88
2023-04-18T11:09:12.695Z,160583.88
2023-04-18T11:11:40.670Z,160541.06
2023-04-18T11:14:09.152Z,160543.72
2023-04-18T11:16:36.719Z,160512.94
2023-04-18T11:19:19.612Z,160476.81
2023-04-18T11:21:47.364Z,160407.19
2023-04-18T11:24:24.591Z,160405.88
2023-04-18T11:26:56.458Z,160427.28
2023-04-18T11:29:25.412Z,160478.13
2023-04-18T11:31:57.691Z,160442.00
2023-04-18T11:34:33.152Z,160480.78
2023-04-18T11:37:00.932Z,160498.22
2023-04-18T11:39:29.905Z,160495.50
2023-04-18T11:41:59.769Z,160506.25
2023-04-18T11:44:28.065Z,160515.59
2023-04-18T11:46:56.322Z,160539.72
2023-04-18T11:49:32.241Z,160531.69
2023-04-18T11:52:01.449Z,160531.69
2023-04-18T11:54:40.035Z,160519.63
2023-04-18T11:57:23.026Z,160516.94
2023-04-18T12:00:01.113Z,160500.88
2023-04-18T12:02:41.070Z,160476.81
2023-04-18T12:05:11.315Z,160466.06
2023-04-18T12:07:41.597Z,160471.44
2023-04-18T12:10:29.619Z,160480.78
2023-04-18T12:13:01.169Z,160491.53
2023-04-18T12:15:29.962Z,160436.63
2023-04-18T12:18:02.556Z,160427.28
2023-04-18T12:20:58.780Z,160428.63
2023-04-18T12:23:32.563Z,160409.88
2023-04-18T12:26:01.568Z,160388.44
2023-04-18T12:28:28.866Z,160405.88
2023-04-18T12:30:56.960Z,160424.59
2023-04-18T12:33:24.267Z,160387.13
2023-04-18T12:35:52.938Z,160336.25
2023-04-18T12:38:22.944Z,160345.59
2023-04-18T12:40:51.898Z,160364.34
2023-04-18T12:43:19.654Z,160380.38
2023-04-18T12:45:47.906Z,160401.84
2023-04-18T12:48:15.193Z,160442.00
2023-04-18T12:50:42.999Z,160446.00
2023-04-18T12:53:10.423Z,160431.28
2023-04-18T12:55:38.602Z,160428.63
2023-04-18T12:58:05.962Z,160399.19
2023-04-18T13:00:33.939Z,160456.72
2023-04-18T13:03:01.616Z,160412.56
2023-04-18T13:05:32.947Z,160459.38
2023-04-18T13:10:33.443Z,160486.16
2023-04-18T13:13:00.887Z,160478.13
2023-04-18T13:15:28.763Z,160514.28
2023-04-18T13:17:57.148Z,160514.28
2023-04-18T13:20:24.913Z,160494.19
2023-04-18T13:22:52.611Z,160499.53
2023-04-18T13:25:21.340Z,160510.28
2023-04-18T13:27:50.808Z,160526.31
2023-04-18T13:30:19.105Z,160550.41
2023-04-18T13:32:47.607Z,160583.88
2023-04-18T13:35:15.694Z,160626.72
2023-04-18T13:37:43.546Z,160581.22
2023-04-18T13:40:12.261Z,160551.72
2023-04-18T13:45:25.012Z,160526.31
2023-04-18T13:47:52.362Z,160543.72
2023-04-18T13:50:20.506Z,160563.78
2023-04-18T13:52:49.514Z,160605.31
2023-04-18T13:55:17.763Z,160612.00
2023-04-18T13:57:45.092Z,160613.34
2023-04-18T14:00:14.813Z,160625.41
2023-04-18T14:02:42.552Z,160646.81
2023-04-18T14:05:10.921Z,160626.72
2023-04-18T14:07:38.670Z,160633.44
2023-04-18T14:10:07.104Z,160621.34
2023-04-18T14:12:53.389Z,160644.09
2023-04-18T14:18:58.548Z,160638.78
2023-04-18T14:21:26.595Z,160618.69
2023-04-18T14:23:54.901Z,160593.25
2023-04-18T14:26:23.118Z,160546.41
2023-04-18T14:28:50.562Z,160567.84
2023-04-18T14:31:18.289Z,160570.50
2023-04-18T14:33:46.497Z,160566.50
2023-04-18T14:36:15.398Z,160589.25
2023-04-18T14:38:43.420Z,160550.41
2023-04-18T14:41:11.393Z,160535.69
2023-04-18T14:43:38.953Z,160520.97
2023-04-18T14:46:13.538Z,160519.63
2023-04-18T14:48:40.899Z,160511.59
2023-04-18T14:51:08.942Z,160506.25
2023-04-18T14:53:36.853Z,160506.25
2023-04-18T14:56:04.902Z,160515.59
2023-04-18T14:58:32.275Z,160488.88
2023-04-18T15:00:59.647Z,160506.25
2023-04-18T15:03:27.159Z,160480.78
2023-04-18T15:05:55.244Z,160484.81
2023-04-18T15:08:22.855Z,160471.44
2023-04-18T15:10:51.079Z,160466.06
2023-04-18T15:13:18.357Z,160464.75
2023-04-18T15:15:53.424Z,160488.88
2023-04-18T15:18:21.587Z,160476.81
2023-04-18T15:20:50.679Z,160460.75
2023-04-18T15:23:19.855Z,160463.41
2023-04-18T15:25:48.082Z,160463.41
2023-04-18T15:28:16.286Z,160456.72
2023-04-18T15:30:44.017Z,160448.69
2023-04-18T15:33:12.019Z,160467.41
2023-04-18T15:35:39.769Z,160455.41
2023-04-18T15:38:07.139Z,160451.34
2023-04-18T15:40:36.372Z,160462.09
2023-04-18T15:43:04.351Z,160459.38
2023-04-18T15:45:32.060Z,160475.47
2023-04-18T15:47:59.831Z,160458.06
2023-04-18T15:50:27.765Z,160462.09
2023-04-18T15:52:56.539Z,160483.50
2023-04-18T15:55:24.648Z,160472.75
2023-04-18T15:57:53.154Z,160448.69
2023-04-18T16:00:30.792Z,160454.06
2023-04-18T16:02:59.143Z,160451.34
2023-04-18T16:05:27.091Z,160458.06
2023-04-18T16:07:56.461Z,160432.66
2023-04-18T16:10:24.187Z,160435.31
2023-04-18T16:12:51.838Z,160397.84
2023-04-18T16:15:20.296Z,160417.88
2023-04-18T16:17:47.853Z,160417.88
2023-04-18T16:20:15.814Z,160397.84
2023-04-18T16:22:43.098Z,160389.78
2023-04-18T16:25:10.897Z,160384.47
2023-04-18T16:27:38.321Z,160371.03
2023-04-18T16:30:06.934Z,160371.03
2023-04-18T16:32:34.225Z,160367.00
2023-04-18T16:35:03.489Z,160346.91
2023-04-18T16:37:30.882Z,160352.28
2023-04-18T16:39:58.605Z,160334.91
2023-04-18T16:42:26.355Z,160341.59
2023-04-18T16:44:55.535Z,160309.47
2023-04-18T16:47:23.025Z,160305.47
2023-04-18T16:49:51.588Z,160321.53
2023-04-18T16:52:19.060Z,160306.81
2023-04-18T16:54:46.828Z,160310.78
2023-04-18T16:57:14.578Z,160301.44
2023-04-18T16:59:42.339Z,160284.09
2023-04-18T17:02:09.937Z,160284.09
2023-04-18T17:04:38.279Z,160272.03
2023-04-18T17:07:06.076Z,160265.34
2023-04-18T17:09:34.076Z,160213.13
2023-04-18T17:12:02.160Z,160237.25
2023-04-18T17:14:29.870Z,160213.13
2023-04-18T17:16:57.515Z,160223.84
2023-04-18T17:19:26.450Z,160210.47
2023-04-18T17:21:53.995Z,160186.41
2023-04-18T17:24:22.867Z,160178.41
2023-04-18T17:26:50.669Z,160162.31
2023-04-18T17:29:18.817Z,160157.00
2023-04-18T17:31:46.449Z,160135.56
2023-04-18T17:34:14.655Z,160134.22
2023-04-18T17:36:43.074Z,160120.84
2023-04-18T17:39:11.180Z,160114.16
2023-04-18T17:41:39.624Z,160118.19
2023-04-18T17:44:08.619Z,160111.50
2023-04-18T17:46:36.480Z,160107.53
2023-04-18T17:49:04.997Z,160094.16
2023-04-18T17:51:32.808Z,160094.16
2023-04-18T17:54:00.595Z,160068.72
2023-04-18T17:56:28.461Z,160056.69
2023-04-18T17:58:56.790Z,160064.69
2023-04-18T18:01:26.258Z,160062.03
2023-04-18T18:03:54.547Z,160055.34
2023-04-18T18:06:22.130Z,160064.69
2023-04-18T18:08:49.905Z,160051.38
2023-04-18T18:11:17.343Z,160045.97
2023-04-18T18:13:46.966Z,160037.94
2023-04-18T18:16:14.477Z,160039.25
2023-04-18T18:18:42.482Z,160036.56
2023-04-18T18:21:11.361Z,160028.53
2023-04-18T18:23:39.128Z,160013.84
2023-04-18T18:26:07.350Z,160013.84
2023-04-18T18:28:35.281Z,160000.47
2023-04-18T18:31:02.909Z,159988.47
2023-04-18T18:33:30.600Z,159995.16
2023-04-18T18:35:58.619Z,159980.47
2023-04-18T18:38:26.493Z,159983.13
2023-04-18T18:40:53.959Z,159967.09
2023-04-18T18:43:26.387Z,159967.09
2023-04-18T18:45:53.877Z,159955.03
2023-04-18T18:48:22.574Z,159936.31
2023-04-18T18:50:51.531Z,159937.63
2023-04-18T18:53:19.228Z,159943.00
2023-04-18T18:55:46.595Z,159918.97
2023-04-18T18:58:14.494Z,159925.66
2023-04-18T19:00:41.969Z,159929.63
2023-04-18T19:03:09.922Z,159906.91
2023-04-18T19:05:38.487Z,159906.91
2023-04-18T19:08:06.688Z,159894.88
2023-04-18T19:10:34.449Z,159904.25
2023-04-18T19:13:03.715Z,159904.25
2023-04-18T19:15:31.233Z,159897.56
2023-04-18T19:17:58.981Z,159882.88
2023-04-18T19:20:28.714Z,159868.19
2023-04-18T19:22:57.106Z,159874.88
2023-04-18T19:25:24.709Z,159865.47
2023-04-18T19:27:52.488Z,159852.13
2023-04-18T19:30:19.957Z,159853.50
2023-04-18T19:32:48.216Z,159850.78
2023-04-18T19:35:15.885Z,159820.06
2023-04-18T19:37:43.674Z,159825.41
2023-04-18T19:40:11.609Z,159796.00
2023-04-18T19:42:40.309Z,159785.31
2023-04-18T19:45:08.008Z,159782.63
2023-04-18T19:47:35.991Z,159774.59
2023-04-18T19:50:04.252Z,159725.19
2023-04-18T19:52:32.252Z,159758.59
2023-04-18T19:54:59.709Z,159733.19
2023-04-18T19:57:29.078Z,159734.56
2023-04-18T19:59:56.867Z,159714.50
2023-04-18T20:02:24.566Z,159699.81
2023-04-18T20:04:52.425Z,159705.13
2023-04-18T20:07:20.391Z,159683.72
2023-04-18T20:09:48.242Z,159659.69
2023-04-18T20:12:15.886Z,159635.66
2023-04-18T20:14:43.487Z,159627.66
2023-04-18T20:17:11.738Z,159619.59
2023-04-18T20:19:39.006Z,159611.59
2023-04-18T20:22:07.395Z,159600.94
2023-04-18T20:24:34.941Z,159580.91
2023-04-18T20:27:03.204Z,159563.50
2023-04-18T20:29:31.234Z,159564.88
2023-04-18T20:31:59.109Z,159554.19
2023-04-18T20:34:26.317Z,159547.50
2023-04-18T20:36:54.186Z,159535.47
2023-04-18T20:39:21.597Z,159515.47
2023-04-18T20:41:50.813Z,159522.16
2023-04-18T20:44:20.986Z,159515.47
2023-04-18T20:46:48.611Z,159492.75
2023-04-18T20:49:16.693Z,159502.13
2023-04-18T20:51:44.472Z,159490.09
2023-04-18T20:54:12.203Z,159482.09
2023-04-18T20:56:40.222Z,159468.72
2023-04-18T20:59:07.751Z,159466.06
2023-04-18T21:01:37.050Z,159451.34
2023-04-18T21:04:05.199Z,159448.69
2023-04-18T21:06:33.080Z,159434.03
2023-04-18T21:09:00.580Z,159436.66
2023-04-18T21:11:28.217Z,159410.00
2023-04-18T21:13:55.526Z,159415.31
2023-04-18T21:16:24.374Z,159414.00
2023-04-18T21:18:52.524Z,159404.66
2023-04-18T21:21:20.271Z,159404.66
2023-04-18T21:23:47.632Z,159392.63
2023-04-18T21:26:15.581Z,159389.97
2023-04-18T21:28:59.519Z,159379.28
2023-04-18T21:31:30.438Z,159367.31
2023-04-18T21:34:00.596Z,159371.28
2023-04-18T21:36:29.167Z,159365.94
2023-04-18T21:38:59.009Z,159356.59
2023-04-18T21:41:27.204Z,159363.28
2023-04-18T21:43:54.833Z,159360.63
2023-04-18T21:46:22.831Z,159349.94
2023-04-18T21:48:50.511Z,159347.28
2023-04-18T21:51:18.185Z,159332.59
2023-04-18T21:53:45.634Z,159328.56
2023-04-18T21:56:14.246Z,159320.56
2023-04-18T21:58:41.828Z,159301.88
2023-04-18T22:01:09.653Z,159288.53
2023-04-18T22:03:37.184Z,159281.84
2023-04-18T22:06:05.216Z,159272.53
2023-04-18T22:08:32.985Z,159255.16
2023-04-18T22:11:00.683Z,159257.81
2023-04-18T22:13:33.260Z,159267.13
2023-04-18T22:16:04.334Z,159243.13
2023-04-18T22:18:35.995Z,159224.44
2023-04-18T22:21:04.972Z,159213.78
2023-04-18T22:23:32.367Z,159195.09
2023-04-18T22:25:59.855Z,159200.44
2023-04-18T22:28:28.718Z,159175.06
2023-04-18T22:30:56.876Z,159188.41
2023-04-18T22:33:24.727Z,159177.78
2023-04-18T22:35:53.007Z,159160.41
2023-04-18T22:38:20.420Z,159157.75
2023-04-18T22:40:48.104Z,159155.06
2023-04-18T22:43:15.547Z,159139.06
2023-04-18T22:45:43.130Z,159132.38
2023-04-18T22:48:12.906Z,159121.75
2023-04-18T22:50:43.546Z,159121.75
2023-04-18T22:53:11.155Z,159109.72
2023-04-18T22:55:40.597Z,159100.41
2023-04-18T22:58:08.627Z,159088.38
2023-04-18T23:00:37.004Z,159076.38
2023-04-18T23:03:04.778Z,159084.38
2023-04-18T23:05:32.862Z,159064.41
2023-04-18T23:08:00.676Z,159069.69
2023-04-18T23:10:28.972Z,159061.69
2023-04-18T23:12:56.680Z,159048.34
2023-04-18T23:15:26.402Z,159033.69
2023-04-18T23:17:54.083Z,159015.06
2023-04-18T23:20:22.225Z,159027.03
2023-04-18T23:22:51.984Z,159020.34
2023-04-18T23:25:20.131Z,159003.03
2023-04-18T23:27:47.525Z,159003.03
2023-04-18T23:30:15.423Z,158999.03
2023-04-18T23:32:42.833Z,158984.34
2023-04-18T23:35:11.419Z,158973.72
2023-04-18T23:37:38.758Z,158980.38
2023-04-18T23:40:08.060Z,158959.06
2023-04-18T23:42:36.002Z,158945.72
2023-04-18T23:45:04.755Z,158911.06
2023-04-18T23:47:32.361Z,158885.72
2023-04-18T23:50:00.208Z,158853.75
2023-04-18T23:52:27.555Z,158825.75
2023-04-18T23:54:55.696Z,158765.72
2023-04-18T23:57:23.019Z,158772.38
2023-04-18T23:59:50.747Z,158739.03
